Time;durP1;ratioP1;P1;durP2;ratioP2;P2;SDS_P1;SDS_P2;PMS_P1;PMS_P2;Temp;Humidity;BMP_temperature;BMP_pressure;BME280_temperature;BME280_humidity;BME280_pressure;Samples;Min_cycle;Max_cycle;Signal;HPM_P1;HPM_P2
2021/05/05 00:02:02;;;;;;;54.23;29.33;;;14.70;51.40;;;;;;5012113;28;20022;-83
2021/05/05 00:04:28;;;;;;;50.80;30.67;;;14.70;51.50;;;;;;4993859;28;20061;-82
2021/05/05 00:06:58;;;;;;;11.10;5.40;;;14.60;51.70;;;;;;4995197;28;20029;-83
2021/05/05 00:09:24;;;;;;;7.60;3.27;;;14.60;51.70;;;;;;5004337;28;20044;-83
2021/05/05 00:11:50;;;;;;;5.13;2.57;;;14.50;51.70;;;;;;5008154;28;20053;-83
2021/05/05 00:14:18;;;;;;;4.13;2.33;;;14.50;51.70;;;;;;4994593;28;20116;-83
2021/05/05 00:16:45;;;;;;;5.90;2.60;;;14.50;51.90;;;;;;4994527;28;20112;-82
2021/05/05 00:19:12;;;;;;;3.30;2.20;;;14.50;52.00;;;;;;5011979;28;20018;-83
2021/05/05 00:21:39;;;;;;;3.47;2.00;;;14.50;52.10;;;;;;4993170;28;20394;-83
2021/05/05 00:24:05;;;;;;;3.00;1.40;;;14.50;52.00;;;;;;4994497;28;20029;-83
2021/05/05 00:26:31;;;;;;;5.10;1.83;;;14.50;51.90;;;;;;4994895;28;20022;-83
2021/05/05 00:28:57;;;;;;;5.80;1.67;;;14.50;51.80;;;;;;5009204;28;20033;-83
2021/05/05 00:31:24;;;;;;;3.57;1.80;;;14.50;51.90;;;;;;5006287;28;20117;-83
2021/05/05 00:33:50;;;;;;;2.73;1.63;;;14.50;52.00;;;;;;4998869;28;20120;-83
2021/05/05 00:36:16;;;;;;;2.50;1.60;;;14.40;52.30;;;;;;4993974;28;20109;-83
2021/05/05 00:38:41;;;;;;;3.30;1.63;;;14.40;52.10;;;;;;5012318;28;20085;-83
2021/05/05 00:41:10;;;;;;;4.60;1.67;;;14.40;52.10;;;;;;4986512;28;20104;-83
2021/05/05 00:43:36;;;;;;;2.37;1.40;;;14.50;52.10;;;;;;4994439;28;20025;-83
2021/05/05 00:46:02;;;;;;;2.80;1.50;;;14.50;52.20;;;;;;4983376;28;20064;-83
2021/05/05 00:48:28;;;;;;;3.40;1.90;;;14.50;52.60;;;;;;4993830;28;20042;-84
2021/05/05 00:50:55;;;;;;;1.93;1.40;;;14.50;52.70;;;;;;4992256;28;20072;-83
2021/05/05 00:53:21;;;;;;;5.40;1.87;;;14.40;52.50;;;;;;4991731;28;20038;-83
2021/05/05 00:55:47;;;;;;;3.60;1.50;;;14.50;52.30;;;;;;4991855;28;20044;-83
2021/05/05 00:58:13;;;;;;;3.87;1.57;;;14.40;52.30;;;;;;4992897;28;20025;-83
2021/05/05 01:00:39;;;;;;;2.90;1.70;;;14.40;52.50;;;;;;4993403;28;20022;-84
2021/05/05 01:03:05;;;;;;;4.77;1.87;;;14.40;52.50;;;;;;5005771;28;20045;-83
2021/05/05 01:05:31;;;;;;;4.13;2.03;;;14.40;52.80;;;;;;4988606;28;20442;-83
2021/05/05 01:07:57;;;;;;;4.40;1.43;;;14.30;52.90;;;;;;4991630;28;20121;-83
2021/05/05 01:10:23;;;;;;;5.40;1.70;;;14.30;52.90;;;;;;4993308;28;20105;-83
2021/05/05 01:12:49;;;;;;;3.37;1.77;;;14.20;52.90;;;;;;5011451;28;20061;-83
2021/05/05 01:15:16;;;;;;;7.13;3.60;;;14.30;53.00;;;;;;5002623;28;20430;-83
2021/05/05 01:17:43;;;;;;;5.47;2.90;;;14.30;53.10;;;;;;5005704;28;20099;-83
2021/05/05 01:20:10;;;;;;;4.73;2.63;;;14.30;53.30;;;;;;5002427;28;20049;-83
2021/05/05 01:22:36;;;;;;;4.83;2.40;;;14.30;53.40;;;;;;5011548;28;20041;-84
2021/05/05 01:25:04;;;;;;;3.53;1.70;;;14.20;53.60;;;;;;4992978;28;20033;-83
2021/05/05 01:27:29;;;;;;;3.67;2.00;;;14.10;53.70;;;;;;4992624;28;20434;-83
2021/05/05 01:29:55;;;;;;;6.30;1.97;;;14.20;53.90;;;;;;4991014;28;20045;-83
2021/05/05 01:32:21;;;;;;;4.07;2.03;;;14.10;54.10;;;;;;4991405;28;20032;-83
2021/05/05 01:34:48;;;;;;;3.67;1.70;;;14.10;54.10;;;;;;4992813;28;20028;-83
2021/05/05 01:37:14;;;;;;;2.53;1.70;;;14.20;54.00;;;;;;4990926;28;20021;-83
2021/05/05 01:39:41;;;;;;;3.00;2.20;;;14.10;54.20;;;;;;4989259;28;20397;-83
2021/05/05 01:42:07;;;;;;;4.43;2.00;;;14.10;54.40;;;;;;5009546;28;20042;-83
2021/05/05 01:44:36;;;;;;;3.80;1.80;;;14.00;54.40;;;;;;5010543;28;20104;-83
2021/05/05 01:47:02;;;;;;;3.07;2.30;;;14.00;54.60;;;;;;4992983;28;20034;-83
2021/05/05 01:49:28;;;;;;;4.80;2.17;;;13.90;54.40;;;;;;4990438;28;20058;-83
2021/05/05 01:52:02;;;;;;;4.57;2.10;;;13.90;54.30;;;;;;4993336;28;20195;-83
2021/05/05 01:54:29;;;;;;;3.40;1.30;;;13.80;54.40;;;;;;5004203;28;20034;-83
2021/05/05 01:57:33;;;;;;;2.97;2.23;;;13.90;54.30;;;;;;5008869;28;20053;-83
2021/05/05 02:00:00;;;;;;;5.93;2.10;;;13.80;54.70;;;;;;4987826;28;20522;-82
2021/05/05 02:02:30;;;;;;;7.77;2.30;;;13.70;54.70;;;;;;5010562;28;20070;-83
2021/05/05 02:04:56;;;;;;;2.90;1.87;;;13.60;54.90;;;;;;4988330;28;20056;-83
2021/05/05 02:07:22;;;;;;;3.10;2.00;;;13.60;55.10;;;;;;4988045;28;20510;-82
2021/05/05 02:09:48;;;;;;;7.40;2.67;;;13.60;55.00;;;;;;4993069;28;20513;-83
2021/05/05 02:12:15;;;;;;;6.53;2.33;;;13.50;55.10;;;;;;4989246;28;20037;-83
2021/05/05 02:14:43;;;;;;;5.23;2.00;;;13.50;55.20;;;;;;5010225;28;20032;-83
2021/05/05 02:17:12;;;;;;;3.77;1.80;;;13.40;55.10;;;;;;4989275;28;20037;-83
2021/05/05 02:19:37;;;;;;;3.07;2.37;;;13.40;55.00;;;;;;4997116;28;20636;-82
2021/05/05 02:22:03;;;;;;;7.77;2.30;;;13.40;55.10;;;;;;5008319;28;20026;-82
2021/05/05 02:24:29;;;;;;;3.57;2.53;;;13.30;55.00;;;;;;4994002;28;20068;-82
2021/05/05 02:26:54;;;;;;;5.40;2.50;;;13.30;55.20;;;;;;4993573;28;20022;-83
2021/05/05 02:29:20;;;;;;;2.83;1.60;;;13.30;55.40;;;;;;4995430;28;20116;-83
2021/05/05 02:31:47;;;;;;;4.50;1.80;;;13.40;55.20;;;;;;4996717;28;20056;-83
2021/05/05 02:34:13;;;;;;;2.47;1.80;;;13.40;55.00;;;;;;5010514;28;20093;-83
2021/05/05 02:36:38;;;;;;;4.13;2.20;;;13.40;54.80;;;;;;4994938;28;20121;-83
2021/05/05 02:39:07;;;;;;;5.03;1.93;;;13.50;54.80;;;;;;5013319;28;20064;-82
2021/05/05 02:41:33;;;;;;;5.93;2.30;;;13.40;54.70;;;;;;4990361;28;20076;-83
2021/05/05 02:43:59;;;;;;;3.40;2.00;;;13.40;54.90;;;;;;4998922;28;20525;-83
2021/05/05 02:46:25;;;;;;;3.73;2.00;;;13.30;54.80;;;;;;4995525;28;20406;-83
2021/05/05 02:48:51;;;;;;;3.83;2.53;;;13.20;55.00;;;;;;5002263;28;20029;-83
2021/05/05 02:51:16;;;;;;;5.80;2.90;;;13.20;55.20;;;;;;5013182;28;20049;-83
2021/05/05 02:53:42;;;;;;;6.30;2.63;;;13.20;55.30;;;;;;4995804;28;20057;-83
2021/05/05 02:56:20;;;;;;;4.63;2.90;;;13.20;55.40;;;;;;4991745;28;20410;-81
2021/05/05 02:58:46;;;;;;;4.03;2.47;;;13.20;55.80;;;;;;4993671;28;20088;-81
2021/05/05 03:01:12;;;;;;;4.87;2.37;;;13.10;55.80;;;;;;5012396;28;20026;-81
2021/05/05 03:03:38;;;;;;;6.17;2.67;;;13.00;55.70;;;;;;5010042;28;20045;-81
2021/05/05 03:06:03;;;;;;;6.63;2.57;;;13.00;55.70;;;;;;4990679;28;20041;-81
2021/05/05 03:08:29;;;;;;;4.50;3.03;;;13.00;55.80;;;;;;4981059;28;20030;-81
2021/05/05 03:10:55;;;;;;;4.93;2.67;;;13.00;55.90;;;;;;5012444;28;20030;-81
2021/05/05 03:13:21;;;;;;;7.03;3.50;;;13.00;55.80;;;;;;4995087;28;20105;-81
2021/05/05 03:16:03;;;;;;;13.17;6.83;;;13.00;55.70;;;;;;5003257;28;20380;-82
2021/05/05 03:18:29;;;;;;;8.38;3.53;;;13.00;55.90;;;;;;4988025;28;20072;-82
2021/05/05 03:20:58;;;;;;;9.73;4.60;;;13.00;55.80;;;;;;4987817;28;20442;-82
2021/05/05 03:23:23;;;;;;;6.20;3.33;;;12.80;56.00;;;;;;4990064;28;20787;-82
2021/05/05 03:25:49;;;;;;;3.83;2.70;;;12.70;56.20;;;;;;4994638;28;20026;-81
2021/05/05 03:28:15;;;;;;;5.37;3.07;;;12.60;56.40;;;;;;5013756;28;20033;-82
2021/05/05 03:30:41;;;;;;;23.03;13.57;;;12.60;56.50;;;;;;4984245;28;20121;-82
2021/05/05 03:33:06;;;;;;;8.77;6.83;;;12.70;56.60;;;;;;4986418;28;20030;-82
2021/05/05 03:35:32;;;;;;;8.93;4.20;;;12.70;56.70;;;;;;4990503;28;20030;-81
2021/05/05 03:38:23;;;;;;;4.47;3.20;;;12.70;56.70;;;;;;5011804;28;20034;-82
2021/05/05 03:40:49;;;;;;;7.67;3.90;;;12.70;56.70;;;;;;4984568;28;20189;-79
2021/05/05 03:43:15;;;;;;;7.77;4.00;;;12.80;56.50;;;;;;4977778;28;20167;-81
2021/05/05 03:45:44;;;;;;;10.53;4.17;;;12.80;56.40;;;;;;4994539;28;20036;-81
2021/05/05 03:48:10;;;;;;;12.43;3.57;;;12.90;56.50;;;;;;4987620;28;20034;-81
2021/05/05 03:50:36;;;;;;;8.87;3.97;;;12.90;56.50;;;;;;4989498;28;20034;-82
2021/05/05 03:53:02;;;;;;;7.20;3.53;;;12.90;56.60;;;;;;4979478;28;20018;-82
2021/05/05 03:55:28;;;;;;;7.07;4.40;;;13.00;56.70;;;;;;4997234;28;20497;-82
2021/05/05 03:57:54;;;;;;;8.53;4.73;;;12.90;56.70;;;;;;4974782;28;20023;-82
2021/05/05 04:00:20;;;;;;;8.10;4.07;;;12.90;56.90;;;;;;4987700;28;20052;-82
2021/05/05 04:02:45;;;;;;;13.03;4.30;;;12.90;57.10;;;;;;4975304;28;20034;-82
2021/05/05 04:05:13;;;;;;;9.73;4.47;;;12.90;57.10;;;;;;4987637;28;20030;-82
2021/05/05 04:07:39;;;;;;;8.67;4.23;;;12.80;57.10;;;;;;4975653;28;20027;-82
2021/05/05 04:10:07;;;;;;;9.17;5.00;;;12.70;57.20;;;;;;4975180;28;20791;-82
2021/05/05 04:12:32;;;;;;;7.60;4.50;;;12.70;57.50;;;;;;4993767;28;20022;-81
2021/05/05 04:14:58;;;;;;;7.10;3.83;;;12.60;57.60;;;;;;4992541;28;20497;-82
2021/05/05 04:17:25;;;;;;;7.40;4.47;;;12.60;57.50;;;;;;4985075;28;20023;-81
2021/05/05 04:19:54;;;;;;;7.63;4.20;;;12.70;57.50;;;;;;4977241;28;20030;-81
2021/05/05 04:22:21;;;;;;;8.37;3.67;;;12.60;57.60;;;;;;4975649;28;20529;-81
2021/05/05 04:24:47;;;;;;;5.83;3.83;;;12.50;57.50;;;;;;4974467;28;20395;-81
2021/05/05 04:27:14;;;;;;;7.27;2.73;;;12.50;57.50;;;;;;4982123;28;20049;-81
2021/05/05 04:29:40;;;;;;;7.20;3.93;;;12.50;57.30;;;;;;4978328;28;20133;-82
2021/05/05 04:32:09;;;;;;;7.00;3.90;;;12.50;57.30;;;;;;4991515;28;20607;-82
2021/05/05 04:34:35;;;;;;;7.63;3.73;;;12.50;57.50;;;;;;4996848;28;20550;-82
2021/05/05 04:37:01;;;;;;;11.27;3.80;;;12.40;57.70;;;;;;4967506;28;20113;-81
2021/05/05 04:39:27;;;;;;;6.43;4.17;;;12.40;57.70;;;;;;5004248;28;20041;-81
2021/05/05 04:41:53;;;;;;;12.10;4.97;;;12.50;57.80;;;;;;4996802;28;20046;-80
2021/05/05 04:44:19;;;;;;;10.00;4.53;;;12.50;57.90;;;;;;4985392;28;20480;-81
2021/05/05 04:46:44;;;;;;;7.67;4.20;;;12.50;58.10;;;;;;4988539;28;20050;-80
2021/05/05 04:49:10;;;;;;;7.37;5.07;;;12.50;58.20;;;;;;4984994;28;20030;-82
2021/05/05 04:51:38;;;;;;;6.77;4.70;;;12.50;58.40;;;;;;4991902;28;20444;-82
2021/05/05 04:54:07;;;;;;;13.43;5.80;;;12.30;58.50;;;;;;4990797;28;20027;-82
2021/05/05 04:56:33;;;;;;;10.13;5.17;;;12.30;58.60;;;;;;4973808;28;20022;-82
2021/05/05 04:58:58;;;;;;;6.20;4.10;;;12.20;58.30;;;;;;4988725;28;20096;-81
2021/05/05 05:01:24;;;;;;;4.73;4.07;;;12.20;58.40;;;;;;4989717;28;20034;-82
2021/05/05 05:03:52;;;;;;;7.83;4.00;;;12.10;58.30;;;;;;4992180;28;20026;-82
2021/05/05 05:06:17;;;;;;;8.63;4.57;;;12.10;58.40;;;;;;4989190;28;20085;-82
2021/05/05 05:08:43;;;;;;;9.73;4.00;;;12.20;58.40;;;;;;4989138;28;20494;-82
2021/05/05 05:11:09;;;;;;;8.53;3.73;;;12.20;58.60;;;;;;4987879;28;20033;-81
2021/05/05 05:13:37;;;;;;;9.27;4.83;;;12.30;58.80;;;;;;4986629;28;20061;-82
2021/05/05 05:16:03;;;;;;;11.37;5.73;;;12.20;58.80;;;;;;4988293;28;20026;-81
2021/05/05 05:18:28;;;;;;;9.37;5.27;;;12.30;58.70;;;;;;4989562;28;20027;-82
2021/05/05 05:20:54;;;;;;;8.57;4.43;;;12.30;58.80;;;;;;4987107;28;20027;-82
2021/05/05 05:23:20;;;;;;;9.23;4.80;;;12.30;58.80;;;;;;4983495;28;20081;-82
2021/05/05 05:25:45;;;;;;;14.17;5.50;;;12.40;58.90;;;;;;4991039;28;20054;-82
2021/05/05 05:28:11;;;;;;;14.80;6.53;;;12.30;58.90;;;;;;4987913;28;20514;-82
2021/05/05 05:30:45;;;;;;;13.67;6.07;;;12.30;58.80;;;;;;4991235;28;20030;-81
2021/05/05 05:33:10;;;;;;;12.47;5.27;;;12.30;58.90;;;;;;4982098;28;20059;-81
2021/05/05 05:35:36;;;;;;;11.10;5.00;;;12.30;58.80;;;;;;4989174;28;20076;-82
2021/05/05 05:38:02;;;;;;;12.30;5.10;;;12.30;58.70;;;;;;4987193;28;20022;-82
2021/05/05 05:40:28;;;;;;;9.33;4.97;;;12.40;58.60;;;;;;4989015;28;20414;-82
2021/05/05 05:56:40;;;;;;;15.30;6.10;;;13.10;57.90;;;;;;4989792;28;20033;-82
2021/05/05 05:59:23;;;;;;;11.60;6.23;;;13.20;57.90;;;;;;4973813;28;20031;-82
2021/05/05 06:01:49;;;;;;;10.83;6.47;;;13.10;58.00;;;;;;4975200;28;20478;-83
2021/05/05 06:04:18;;;;;;;12.50;6.77;;;13.20;58.10;;;;;;4978104;28;20037;-82
2021/05/05 06:06:45;;;;;;;11.57;6.63;;;13.20;58.20;;;;;;4987051;28;20022;-83
2021/05/05 06:09:11;;;;;;;11.33;5.53;;;13.30;58.20;;;;;;4979472;28;20105;-83
2021/05/05 06:11:37;;;;;;;11.13;6.20;;;13.30;58.10;;;;;;4980577;28;21858;-82
2021/05/05 06:14:04;;;;;;;13.03;5.20;;;13.40;58.00;;;;;;4978696;28;20030;-83
2021/05/05 06:16:30;;;;;;;12.20;5.67;;;13.40;57.80;;;;;;4977675;28;20027;-83
2021/05/05 06:18:55;;;;;;;8.60;5.57;;;13.50;57.60;;;;;;4981811;28;20026;-83
2021/05/05 06:21:22;;;;;;;7.47;4.57;;;13.50;57.40;;;;;;4989297;28;20029;-83
2021/05/05 06:23:48;;;;;;;12.07;6.00;;;13.50;57.20;;;;;;4985377;28;20909;-83
2021/05/05 06:26:14;;;;;;;10.70;5.53;;;13.50;57.10;;;;;;4984404;28;20057;-82
2021/05/05 06:28:39;;;;;;;10.03;4.00;;;13.50;57.10;;;;;;4995194;28;20033;-83
2021/05/05 06:31:06;;;;;;;5.87;3.80;;;13.70;57.00;;;;;;4986672;28;20093;-83
2021/05/05 06:33:32;;;;;;;7.40;3.70;;;13.80;56.50;;;;;;4975186;28;20027;-83
2021/05/05 06:35:58;;;;;;;3.93;3.30;;;13.90;56.20;;;;;;4975124;28;20033;-83
2021/05/05 06:38:23;;;;;;;7.83;3.47;;;14.00;55.70;;;;;;4976516;28;20042;-82
2021/05/05 06:40:49;;;;;;;5.33;3.20;;;14.00;55.40;;;;;;4972941;28;20027;-83
2021/05/05 06:43:15;;;;;;;8.07;3.53;;;14.10;55.00;;;;;;4974830;28;20030;-83
2021/05/05 06:45:40;;;;;;;6.27;3.60;;;14.20;54.80;;;;;;4980918;28;20028;-83
2021/05/05 06:48:06;;;;;;;9.70;3.73;;;14.30;54.80;;;;;;4998937;28;20049;-83
2021/05/05 06:50:32;;;;;;;5.70;3.23;;;14.40;54.70;;;;;;5007965;28;20080;-82
2021/05/05 06:52:58;;;;;;;11.60;3.50;;;14.40;54.40;;;;;;4996533;28;20026;-82
2021/05/05 06:55:24;;;;;;;7.60;3.70;;;14.50;54.30;;;;;;4998089;28;20537;-83
2021/05/05 06:57:50;;;;;;;5.87;3.90;;;14.60;54.10;;;;;;5000517;28;20030;-83
2021/05/05 07:00:17;;;;;;;13.20;3.60;;;14.60;54.00;;;;;;4991779;28;20057;-83
2021/05/05 07:02:43;;;;;;;11.80;3.40;;;14.60;53.90;;;;;;4993346;28;20052;-83
2021/05/05 07:05:10;;;;;;;9.47;3.67;;;14.70;54.00;;;;;;5006405;28;20392;-83
2021/05/05 07:07:35;;;;;;;8.90;4.30;;;14.70;53.80;;;;;;4996315;28;20500;-82
2021/05/05 07:10:01;;;;;;;11.40;3.10;;;14.80;53.70;;;;;;4995580;28;20108;-82
2021/05/05 07:12:27;;;;;;;7.67;3.57;;;14.80;53.30;;;;;;5010195;28;20197;-83
2021/05/05 07:14:53;;;;;;;8.27;4.20;;;14.80;53.30;;;;;;4988722;28;20133;-83
2021/05/05 08:02:23;;;;;;;3.90;2.20;;;15.70;51.60;;;;;;4226123;28;20490;-82
2021/05/05 08:04:49;;;;;;;9.50;3.30;;;15.70;52.30;;;;;;4992920;28;20057;-82
2021/05/05 08:07:19;;;;;;;8.27;2.17;;;15.70;53.40;;;;;;4990224;28;20042;-83
2021/05/05 08:09:45;;;;;;;3.30;2.00;;;15.70;53.80;;;;;;5007460;28;20060;-83
2021/05/05 08:12:12;;;;;;;5.27;1.77;;;15.70;53.90;;;;;;4992105;28;20022;-83
2021/05/05 08:14:40;;;;;;;5.77;1.80;;;15.60;54.50;;;;;;5012667;28;20056;-83
2021/05/05 08:17:06;;;;;;;5.60;1.43;;;15.60;55.20;;;;;;4992781;28;20493;-83
2021/05/05 08:19:32;;;;;;;3.57;1.83;;;15.70;55.50;;;;;;5009129;28;20022;-83
2021/05/05 08:21:58;;;;;;;5.13;1.50;;;15.90;55.70;;;;;;5010606;28;20161;-83
2021/05/05 08:24:24;;;;;;;3.53;1.30;;;16.00;55.20;;;;;;4990490;28;20466;-83
2021/05/05 08:26:49;;;;;;;4.03;1.70;;;16.00;54.80;;;;;;4994226;28;20433;-83
2021/05/05 08:29:28;;;;;;;3.60;1.20;;;16.00;54.90;;;;;;4994575;28;20079;-83
2021/05/05 08:31:55;;;;;;;4.53;0.90;;;16.00;54.90;;;;;;4992385;28;20022;-83
2021/05/05 08:34:20;;;;;;;1.87;0.60;;;16.10;54.40;;;;;;4993508;28;20445;-82
2021/05/05 08:36:46;;;;;;;1.47;0.67;;;15.90;54.20;;;;;;5011846;28;20033;-82
2021/05/05 08:39:13;;;;;;;1.00;0.60;;;16.10;54.30;;;;;;4993826;28;20088;-83
2021/05/05 08:41:39;;;;;;;1.37;0.40;;;16.20;53.80;;;;;;4997752;28;20052;-82
2021/05/05 08:44:12;;;;;;;1.40;0.40;;;16.10;53.30;;;;;;4995320;28;20025;-82
2021/05/05 08:46:43;;;;;;;5.43;0.60;;;16.10;53.00;;;;;;5012446;28;20072;-83
2021/05/05 08:49:10;;;;;;;1.43;0.60;;;16.00;52.70;;;;;;4994156;28;20030;-82
2021/05/05 08:51:37;;;;;;;5.40;0.87;;;15.90;52.70;;;;;;4993850;28;20395;-82
2021/05/05 08:54:05;;;;;;;3.63;0.50;;;15.70;52.80;;;;;;4994872;28;20034;-82
2021/05/05 08:56:35;;;;;;;1.10;0.40;;;15.40;53.40;;;;;;5002634;28;20026;-83
2021/05/05 08:59:08;;;;;;;5.10;0.50;;;15.20;53.50;;;;;;5010756;28;20017;-83
2021/05/05 09:01:35;;;;;;;2.23;0.50;;;15.20;53.80;;;;;;4992047;28;20679;-83
2021/05/05 09:04:01;;;;;;;4.10;0.80;;;15.10;54.20;;;;;;4994281;28;20565;-83
2021/05/05 09:06:56;;;;;;;1.33;0.40;;;15.00;53.90;;;;;;4991818;28;20025;-83
2021/05/05 09:09:40;;;;;;;1.03;0.43;;;14.90;54.20;;;;;;5008318;28;20040;-83
2021/05/05 09:12:25;;;;;;;2.40;0.40;;;14.70;54.40;;;;;;4986454;28;20088;-82
2021/05/05 09:15:04;;;;;;;2.33;0.43;;;14.60;54.50;;;;;;4988031;28;20033;-83
2021/05/05 09:17:48;;;;;;;1.60;0.30;;;14.50;54.60;;;;;;4994366;28;20026;-83
2021/05/05 09:20:17;;;;;;;1.13;0.40;;;14.40;54.60;;;;;;5008425;28;20022;-83
2021/05/05 09:22:50;;;;;;;0.93;0.37;;;14.40;54.80;;;;;;4995874;28;20101;-83
2021/05/05 09:25:25;;;;;;;1.10;0.22;;;14.40;54.80;;;;;;4993970;28;20029;-83
2021/05/05 09:28:14;;;;;;;2.57;0.80;;;14.20;54.70;;;;;;4988164;28;20046;-83
2021/05/05 09:30:46;;;;;;;2.57;0.30;;;14.10;55.30;;;;;;4996604;28;20034;-83
2021/05/05 09:33:30;;;;;;;1.80;0.40;;;13.90;55.60;;;;;;5011809;28;20029;-83
2021/05/05 09:35:59;;;;;;;3.60;0.67;;;13.90;56.20;;;;;;4993069;28;20386;-83
2021/05/05 09:38:49;;;;;;;4.73;0.40;;;13.90;56.30;;;;;;4997378;28;20034;-83
2021/05/05 09:41:30;;;;;;;2.37;0.50;;;13.90;56.30;;;;;;4989757;28;20049;-83
2021/05/05 09:44:05;;;;;;;1.30;0.30;;;14.00;56.10;;;;;;4986789;28;20403;-83
2021/05/05 09:46:43;;;;;;;2.03;0.20;;;14.00;56.00;;;;;;4996274;28;20494;-83
2021/05/05 09:49:25;;;;;;;2.10;0.30;;;13.90;55.40;;;;;;4978828;28;20041;-83
2021/05/05 09:52:07;;;;;;;0.30;0.13;;;13.60;56.80;;;;;;4998227;28;20038;-82
2021/05/05 09:54:38;;;;;;;4.53;0.45;;;13.40;56.60;;;;;;5012066;28;20501;-82
2021/05/05 09:57:28;;;;;;;2.20;0.60;;;13.30;56.70;;;;;;4998477;28;20068;-83
2021/05/05 09:59:55;;;;;;;1.63;0.20;;;13.20;56.90;;;;;;4986807;28;20394;-83
2021/05/05 10:02:21;;;;;;;1.13;0.30;;;13.10;57.20;;;;;;4997830;28;20037;-82
2021/05/05 10:05:06;;;;;;;1.50;0.30;;;12.90;57.50;;;;;;4997386;28;20509;-82
2021/05/05 10:07:56;;;;;;;0.60;0.30;;;12.80;58.50;;;;;;4997774;28;20113;-83
2021/05/05 10:10:27;;;;;;;0.60;0.20;;;12.70;58.40;;;;;;4996276;28;20054;-82
2021/05/05 10:12:55;;;;;;;1.30;0.30;;;12.70;58.30;;;;;;4994848;28;20026;-83
2021/05/05 10:15:22;;;;;;;1.77;0.20;;;12.80;58.20;;;;;;5007692;28;20034;-82
2021/05/05 10:17:50;;;;;;;0.20;0.10;;;12.70;58.20;;;;;;4998255;28;20321;-83
2021/05/05 10:20:19;;;;;;;2.00;0.20;;;12.70;58.10;;;;;;4997461;28;20076;-82
2021/05/05 10:22:45;;;;;;;0.00;0.00;;;12.60;58.30;;;;;;4997754;28;20570;-83
2021/05/05 10:25:16;;;;;;;2.30;0.10;;;12.70;58.00;;;;;;4997956;28;20022;-82
2021/05/05 10:27:42;;;;;;;0.53;0.10;;;12.80;57.70;;;;;;5015545;28;20066;-82
2021/05/05 10:30:13;;;;;;;2.13;0.30;;;12.70;57.80;;;;;;4997658;28;20410;-82
2021/05/05 10:32:45;;;;;;;1.23;0.10;;;12.70;57.80;;;;;;4997384;28;20025;-83
2021/05/05 10:35:15;;;;;;;0.35;0.10;;;12.70;58.20;;;;;;4998097;28;20098;-82
2021/05/05 10:37:47;;;;;;;0.10;0.10;;;12.60;57.90;;;;;;4995585;28;20087;-82
2021/05/05 10:40:35;;;;;;;0.38;0.20;;;12.60;58.10;;;;;;4996969;28;20040;-82
2021/05/05 10:43:03;;;;;;;0.00;0.00;;;12.50;58.00;;;;;;4997552;28;20045;-82
2021/05/05 10:45:45;;;;;;;1.30;0.20;;;12.50;58.20;;;;;;4994760;28;20040;-82
2021/05/05 10:48:26;;;;;;;0.43;0.13;;;12.40;58.90;;;;;;4982274;28;20034;-83
2021/05/05 10:50:58;;;;;;;0.73;0.20;;;12.50;59.10;;;;;;4996141;28;20041;-82
2021/05/05 10:53:43;;;;;;;1.10;0.20;;;12.50;59.20;;;;;;4986068;28;20040;-82
2021/05/05 10:56:35;;;;;;;0.17;0.10;;;12.50;59.60;;;;;;4995407;28;20026;-82
2021/05/05 10:59:06;;;;;;;0.77;0.20;;;12.60;59.60;;;;;;4993035;28;20026;-82
2021/05/05 11:01:51;;;;;;;2.37;0.10;;;12.50;59.50;;;;;;4997180;28;20467;-82
2021/05/05 11:04:16;;;;;;;0.67;0.30;;;12.50;59.70;;;;;;4993055;28;20936;-82
2021/05/05 11:06:48;;;;;;;1.47;0.60;;;12.50;59.60;;;;;;4993660;28;20040;-81
2021/05/05 11:09:14;;;;;;;0.97;0.40;;;12.50;59.70;;;;;;5003438;28;20026;-82
2021/05/05 11:11:43;;;;;;;0.97;0.37;;;12.50;59.80;;;;;;4990360;28;20445;-82
2021/05/05 11:14:32;;;;;;;0.30;0.20;;;12.50;59.70;;;;;;4994827;28;20026;-81
2021/05/05 11:17:00;;;;;;;0.57;0.20;;;12.40;59.80;;;;;;4994868;28;20022;-82
2021/05/05 11:19:38;;;;;;;0.23;0.20;;;12.40;60.00;;;;;;4996747;28;20041;-83
2021/05/05 11:22:19;;;;;;;1.43;0.50;;;12.40;59.30;;;;;;4992352;28;21764;-82
2021/05/05 11:24:46;;;;;;;5.00;1.30;;;12.30;60.00;;;;;;5011463;28;20032;-82
2021/05/05 11:27:16;;;;;;;0.60;0.30;;;12.30;60.50;;;;;;4993438;28;20032;-83
2021/05/05 11:29:49;;;;;;;1.60;0.23;;;12.20;60.40;;;;;;4990573;28;20027;-83
2021/05/05 11:32:35;;;;;;;2.40;0.30;;;12.40;60.20;;;;;;4993168;28;20091;-83
2021/05/05 11:35:01;;;;;;;0.77;0.30;;;12.40;60.40;;;;;;4998043;28;20113;-83
2021/05/05 11:37:28;;;;;;;0.20;0.13;;;12.30;60.40;;;;;;4989961;28;20033;-83
2021/05/05 11:40:03;;;;;;;1.70;0.37;;;12.30;60.00;;;;;;4996873;28;20030;-83
2021/05/05 11:42:36;;;;;;;0.67;0.13;;;12.20;59.50;;;;;;4990463;28;20045;-83
2021/05/05 11:45:09;;;;;;;0.50;0.30;;;12.10;59.60;;;;;;5000712;28;20018;-83
2021/05/05 11:47:39;;;;;;;1.90;1.50;;;12.10;59.90;;;;;;4995614;28;20391;-83
2021/05/05 11:50:08;;;;;;;3.73;1.90;;;12.00;60.30;;;;;;4995511;28;20034;-83
2021/05/05 11:52:39;;;;;;;6.40;2.00;;;12.10;60.80;;;;;;4979805;28;20030;-83
2021/05/05 11:55:08;;;;;;;0.20;0.10;;;12.10;61.40;;;;;;4991755;28;20119;-82
2021/05/05 11:57:44;;;;;;;1.50;0.30;;;12.10;60.50;;;;;;5009985;28;20027;-82
2021/05/05 12:00:14;;;;;;;1.27;0.30;;;12.00;60.30;;;;;;4989193;28;20030;-83
2021/05/05 12:02:51;;;;;;;1.10;0.30;;;12.00;60.40;;;;;;4985404;28;20022;-83
2021/05/05 12:05:47;;;;;;;0.93;0.30;;;12.20;60.50;;;;;;4998937;28;20033;-83
2021/05/05 12:08:21;;;;;;;0.40;0.10;;;12.20;59.90;;;;;;4986462;28;20064;-83
2021/05/05 12:10:50;;;;;;;0.37;0.10;;;12.20;59.20;;;;;;4995302;28;20058;-83
2021/05/05 12:13:32;;;;;;;0.30;0.20;;;12.20;59.40;;;;;;5014099;28;20022;-83
2021/05/05 12:16:14;;;;;;;0.52;0.30;;;12.20;59.40;;;;;;4984316;28;20049;-83
2021/05/05 12:18:49;;;;;;;0.80;0.30;;;12.20;59.40;;;;;;5005958;28;20127;-83
2021/05/05 12:21:22;;;;;;;2.93;1.83;;;12.20;59.50;;;;;;5011977;28;20113;-83
2021/05/05 12:23:48;;;;;;;1.90;0.80;;;12.30;59.90;;;;;;4994010;28;20904;-83
2021/05/05 12:26:25;;;;;;;2.70;0.60;;;12.20;59.60;;;;;;4994859;28;20041;-82
2021/05/05 12:28:52;;;;;;;3.77;1.00;;;12.20;60.50;;;;;;4993271;28;20032;-82
2021/05/05 12:31:20;;;;;;;1.20;0.50;;;12.20;60.90;;;;;;4993750;28;20463;-82
2021/05/05 12:33:48;;;;;;;2.17;0.63;;;12.30;61.10;;;;;;5002645;28;20049;-83
2021/05/05 12:36:22;;;;;;;3.30;1.27;;;12.30;60.70;;;;;;4999726;28;20021;-83
2021/05/05 12:38:53;;;;;;;3.93;0.50;;;12.30;60.80;;;;;;5011645;28;20022;-83
2021/05/05 12:41:23;;;;;;;1.20;0.40;;;12.30;60.20;;;;;;5013679;28;20042;-83
2021/05/05 12:43:52;;;;;;;0.30;0.20;;;12.30;59.90;;;;;;5004488;28;20396;-83
2021/05/05 12:46:32;;;;;;;0.40;0.20;;;12.40;59.40;;;;;;4986896;28;20030;-82
2021/05/05 12:48:58;;;;;;;0.93;0.37;;;12.30;58.40;;;;;;5010914;28;20029;-82
2021/05/05 12:51:26;;;;;;;4.00;0.50;;;12.30;58.50;;;;;;4996994;28;20026;-82
2021/05/05 12:53:58;;;;;;;2.30;0.40;;;12.40;58.90;;;;;;4992743;28;20022;-82
2021/05/05 12:56:45;;;;;;;0.32;0.20;;;12.70;58.80;;;;;;4992327;28;20506;-83
2021/05/05 12:59:14;;;;;;;0.33;0.20;;;12.70;59.10;;;;;;4991089;28;20033;-83
2021/05/05 13:01:40;;;;;;;2.33;0.27;;;12.80;58.80;;;;;;4991678;28;20029;-83
2021/05/05 13:04:05;;;;;;;1.23;0.30;;;12.80;57.80;;;;;;4984284;28;20073;-83
2021/05/05 13:06:48;;;;;;;2.90;0.40;;;12.80;57.50;;;;;;4998702;28;20491;-83
2021/05/05 13:09:22;;;;;;;2.60;0.30;;;12.90;57.20;;;;;;4992250;28;20410;-83
2021/05/05 13:12:51;;;;;;;0.73;0.20;;;13.00;57.90;;;;;;4988048;28;20040;-83
2021/05/05 13:30:49;;;;;;;0.90;0.53;;;13.30;58.70;;;;;;5011967;28;20085;-82
2021/05/05 13:33:22;;;;;;;3.47;0.83;;;13.30;58.70;;;;;;4984027;28;20026;-83
2021/05/05 13:35:57;;;;;;;2.30;1.15;;;13.20;58.60;;;;;;4990652;28;20080;-83
2021/05/05 13:38:28;;;;;;;4.13;1.87;;;13.20;59.00;;;;;;4987692;28;20057;-83
2021/05/05 13:41:02;;;;;;;3.67;1.37;;;13.30;59.10;;;;;;4990745;28;20634;-84
2021/05/05 13:46:26;;;;;;;13.73;8.17;;;13.50;58.70;;;;;;5009903;28;20402;-83
2021/05/05 13:49:00;;;;;;;7.73;4.03;;;13.50;58.40;;;;;;5009627;28;20032;-82
2021/05/05 13:51:27;;;;;;;2.10;1.30;;;13.60;58.50;;;;;;4994242;28;20061;-83
2021/05/05 13:53:54;;;;;;;2.20;0.87;;;13.60;58.50;;;;;;4988823;28;20069;-82
2021/05/05 13:56:22;;;;;;;4.00;1.77;;;13.70;58.40;;;;;;4991790;28;20479;-83
2021/05/05 13:58:48;;;;;;;1.70;1.30;;;13.70;58.40;;;;;;4995500;28;20077;-82
2021/05/05 14:01:15;;;;;;;2.50;0.60;;;13.60;58.30;;;;;;4994228;28;20034;-83
2021/05/05 14:03:42;;;;;;;4.27;1.03;;;13.60;58.40;;;;;;4984515;28;20033;-82
2021/05/05 14:06:08;;;;;;;3.30;1.13;;;13.60;58.40;;;;;;5007349;28;20053;-83
2021/05/05 14:08:34;;;;;;;2.23;1.10;;;13.60;58.30;;;;;;4993861;28;20029;-82
2021/05/05 14:11:00;;;;;;;8.17;1.53;;;13.60;58.20;;;;;;4994067;28;20116;-83
2021/05/05 14:13:26;;;;;;;1.70;1.30;;;13.50;58.20;;;;;;4993403;28;20503;-83
2021/05/05 14:15:54;;;;;;;1.57;1.03;;;13.40;58.20;;;;;;4993883;28;20046;-83